Terminal Aerodrome Forecast
Issued by NWS Missoula, MT

Home | Current Version | Previous Version | Text Only | Print | Product List | Glossary On
Versions: 1 2 3 4 5 6 7 8 9 10 11 12 13
000
FTUS45 KMSO 031120
TAFMSO
TAF
KMSO 031120Z 0312/0412 VRB04KT P6SM SKC
     FM032200 35008KT P6SM SKC
     FM040100 35009G17KT P6SM SKC
     FM040300 VRB06KT P6SM SKC=

USA.gov is the U.S. government's official web portal to all federal, state and local government web resources and services.